الصفحة الرئيسية
METAR-TAF:

METAR-TAF

مطار :

دوبروفنيك, كرواتيا

دائرة عرض: 42-34N, خط طول: 018-16E, ارتفاع: 157 متر

مراقبة الطقس الحالي

تاريخ ووقت الإصدار 21 دقيقة قبل الساعة 17:30UTC
ريح 10 عقدة من الشمال الشرقي, الاتجاه يتراوح بين الشمال الغربي و الشرق
درجة الحرارة 7°درجة مئوية
الرطوبة 36%
ضغط 1012 hPa
الرؤية 10 كم أو أكثر
غيوم قليلة على ارتفاع 5600 قدم

METAR: LDDU 011730Z 04010KT 320V090 9999 FEW056 07/M07 Q1012 NOSIG

زمن: 19:51 (17:51 UTC)

توقعات

تاريخ ووقت الإصدار 26 دقيقة قبل الساعة 17:25UTC
التوقعات صالحة من01 الساعة 18 UTC إلى 02 الساعة 18 UTC
ريح 18 عقدة من الشمال/الشمال الشرقي
الرؤية 10 كم أو أكثر
الغيوم لا تقل 1500 م ولا وجود لمزنة ركامية السحاب الأسود
أصبح
من 02 الساعة 09 UTC إلى 02 الساعة 11 UTC
ريح 6 عقدة من الغرب/الجنوب الغربي

TAF: LDDU 011725Z 0118/0218 02018KT CAVOK TX12/0213Z TN02/0203Z BECMG 0209/0211 25006KT

أرصاد الطقس والتوقعات من أكثر من 4000 مطار (تقارير الطقس للمطار METAR والتنبؤ بالطقس بالمطارTAF).

المحطات المتاحة هي النقط الصفراء والحمراء على الخريطة.

حرك المؤشر فوق النقطة لمعرفة اسم المحطة.

ثم انقر لمعرفة أرصاد وتوقعات الطقس.

لتغيير الخارطة: اضغط على الأزرار الخضراء مع رمز الصليب الأسود للتكبير. على الزر الأخضر مع شرطة للتصغير، أو على الأسهم الخضراء للخرائط المجاورة.


METAR-TAF: